Time;durP1;ratioP1;P1;durP2;ratioP2;P2;SDS_P1;SDS_P2;PMS_P1;PMS_P2;Temp;Humidity;BMP_temperature;BMP_pressure;BME280_temperature;BME280_humidity;BME280_pressure;Samples;Min_cycle;Max_cycle;Signal;HPM_P1;HPM_P2
2023/05/30 00:05:19;;;;;;;8.10;3.13;;;;;;;;;;9978651;29;20205;-83
2023/05/30 00:10:41;;;;;;;5.43;2.25;;;;;;;;;;10008549;29;20203;-82
2023/05/30 00:16:03;;;;;;;6.25;2.53;;;;;;;;;;9990774;29;20232;-83
2023/05/30 00:21:27;;;;;;;7.03;2.90;;;;;;;;;;9990895;29;20230;-81
2023/05/30 00:26:50;;;;;;;7.38;2.70;;;;;;;;;;10015912;29;20213;-82
2023/05/30 00:32:12;;;;;;;6.93;2.83;;;;;;;;;;10015439;29;20239;-82
2023/05/30 00:37:34;;;;;;;7.25;3.17;;;;;;;;;;10027995;29;20250;-82
2023/05/30 00:42:56;;;;;;;9.18;2.65;;;;;;;;;;10009146;29;20213;-82
2023/05/30 00:48:18;;;;;;;8.75;2.75;;;;;;;;;;9990600;29;20463;-83
2023/05/30 00:53:41;;;;;;;9.55;3.72;;;;;;;;;;10002878;29;20288;-82
2023/05/30 00:59:03;;;;;;;8.43;4.07;;;;;;;;;;9997624;29;20216;-83
2023/05/30 01:04:25;;;;;;;12.80;4.75;;;;;;;;;;9989967;29;20215;-83
2023/05/30 01:09:46;;;;;;;12.00;4.80;;;;;;;;;;10015741;29;20211;-82
2023/05/30 01:15:14;;;;;;;10.23;4.57;;;;;;;;;;9989431;29;20315;-82
2023/05/30 01:20:44;;;;;;;10.85;4.15;;;;;;;;;;9989581;29;20276;-82
2023/05/30 01:26:15;;;;;;;7.88;3.22;;;;;;;;;;10001781;29;20213;-82
2023/05/30 01:31:36;;;;;;;7.38;3.17;;;;;;;;;;10003677;29;20237;-82
2023/05/30 01:36:58;;;;;;;7.80;3.40;;;;;;;;;;10033845;29;20279;-82
2023/05/30 01:42:25;;;;;;;6.13;2.75;;;;;;;;;;10006713;29;20222;-82
2023/05/30 01:47:54;;;;;;;8.60;3.75;;;;;;;;;;9996074;29;20208;-83
2023/05/30 01:53:24;;;;;;;7.85;3.47;;;;;;;;;;10000278;29;20207;-82
2023/05/30 01:58:48;;;;;;;8.15;3.47;;;;;;;;;;10048242;29;20417;-83
2023/05/30 02:10:27;;;;;;;8.73;3.13;;;;;;;;;;10014260;29;20202;-82
2023/05/30 02:15:49;;;;;;;7.75;3.53;;;;;;;;;;9998186;29;20250;-82
2023/05/30 02:21:10;;;;;;;11.57;3.87;;;;;;;;;;9985459;29;20222;-82
2023/05/30 02:26:32;;;;;;;6.55;3.60;;;;;;;;;;9994853;29;20203;-82
2023/05/30 02:31:54;;;;;;;13.18;3.33;;;;;;;;;;9996902;29;20223;-82
2023/05/30 02:42:55;;;;;;;10.05;3.80;;;;;;;;;;10042777;29;20222;-81
2023/05/30 02:48:18;;;;;;;8.25;3.35;;;;;;;;;;10031737;29;20285;-82
2023/05/30 02:53:40;;;;;;;11.50;4.10;;;;;;;;;;10026321;29;20293;-83
2023/05/30 02:59:03;;;;;;;6.23;3.07;;;;;;;;;;10002052;29;20254;-82
2023/05/30 03:04:45;;;;;;;9.00;3.80;;;;;;;;;;9998616;29;20245;-82
2023/05/30 03:10:08;;;;;;;13.45;4.93;;;;;;;;;;10038903;29;20429;-82
2023/05/30 03:15:34;;;;;;;12.20;4.87;;;;;;;;;;10022018;29;20289;-82
2023/05/30 03:20:56;;;;;;;9.57;4.63;;;;;;;;;;9992863;29;20208;-82
2023/05/30 03:26:18;;;;;;;10.23;4.63;;;;;;;;;;9992281;29;20568;-82
2023/05/30 03:31:40;;;;;;;10.02;4.88;;;;;;;;;;9987469;29;20301;-82
2023/05/30 03:37:04;;;;;;;10.83;3.83;;;;;;;;;;10017029;29;20262;-83
2023/05/30 03:42:26;;;;;;;12.88;4.40;;;;;;;;;;10000267;29;20219;-82
2023/05/30 03:47:48;;;;;;;13.30;4.43;;;;;;;;;;9979405;29;20207;-82
2023/05/30 03:53:09;;;;;;;13.80;5.95;;;;;;;;;;10003568;29;20217;-83
2023/05/30 03:58:31;;;;;;;14.02;6.10;;;;;;;;;;9991683;29;20250;-82
2023/05/30 04:03:52;;;;;;;12.70;5.93;;;;;;;;;;10003892;29;20494;-82
2023/05/30 04:09:15;;;;;;;11.85;4.82;;;;;;;;;;10028525;29;20263;-82
2023/05/30 04:14:37;;;;;;;9.38;3.70;;;;;;;;;;10024353;29;20403;-82
2023/05/30 04:19:59;;;;;;;5.45;2.90;;;;;;;;;;10041254;29;20209;-82
2023/05/30 04:25:20;;;;;;;10.10;3.78;;;;;;;;;;9992882;29;20265;-83
2023/05/30 04:30:42;;;;;;;11.95;3.00;;;;;;;;;;10006568;29;20211;-81
2023/05/30 04:36:05;;;;;;;8.70;2.60;;;;;;;;;;10006606;29;20246;-82
2023/05/30 04:41:27;;;;;;;6.55;2.55;;;;;;;;;;10022104;29;20282;-82
2023/05/30 04:46:51;;;;;;;9.88;2.92;;;;;;;;;;10027669;29;20390;-82
2023/05/30 04:52:12;;;;;;;8.07;2.93;;;;;;;;;;9999401;29;20296;-82
2023/05/30 04:57:34;;;;;;;6.07;2.53;;;;;;;;;;10003030;29;20229;-82
2023/05/30 05:02:56;;;;;;;7.40;2.40;;;;;;;;;;9992382;29;20497;-82
2023/05/30 05:08:17;;;;;;;7.70;2.33;;;;;;;;;;10017710;29;20260;-82
2023/05/30 05:13:39;;;;;;;5.97;2.17;;;;;;;;;;10000072;29;20217;-82
2023/05/30 05:19:00;;;;;;;5.28;2.58;;;;;;;;;;10008849;29;20314;-81
2023/05/30 05:24:22;;;;;;;9.00;2.53;;;;;;;;;;10009662;29;20200;-82
2023/05/30 05:29:43;;;;;;;5.03;2.33;;;;;;;;;;9999619;29;20295;-82
2023/05/30 05:35:08;;;;;;;9.48;3.00;;;;;;;;;;10031766;29;20251;-82
2023/05/30 05:40:30;;;;;;;6.38;2.72;;;;;;;;;;10022748;29;20265;-81
2023/05/30 05:45:52;;;;;;;9.40;2.38;;;;;;;;;;9995855;29;20262;-81
2023/05/30 05:51:13;;;;;;;7.55;1.80;;;;;;;;;;9994828;29;20229;-81
2023/05/30 05:56:36;;;;;;;4.82;1.85;;;;;;;;;;10007897;29;20240;-81
2023/05/30 06:01:58;;;;;;;4.63;1.42;;;;;;;;;;10011067;29;20216;-82
2023/05/30 06:07:20;;;;;;;5.00;1.67;;;;;;;;;;10014211;29;20509;-83
2023/05/30 06:12:41;;;;;;;4.82;2.00;;;;;;;;;;10019328;29;20275;-82
2023/05/30 06:18:04;;;;;;;6.10;1.83;;;;;;;;;;10006761;29;20246;-82
2023/05/30 06:23:26;;;;;;;6.90;2.40;;;;;;;;;;10021500;29;20232;-83
2023/05/30 06:28:49;;;;;;;5.30;1.55;;;;;;;;;;10044975;29;20496;-83
2023/05/30 06:34:11;;;;;;;6.22;1.40;;;;;;;;;;10006702;29;20272;-83
2023/05/30 06:39:33;;;;;;;28.80;2.42;;;;;;;;;;10007463;29;20255;-83
2023/05/30 06:44:54;;;;;;;3.33;1.45;;;;;;;;;;10005776;29;20206;-83
2023/05/30 06:50:16;;;;;;;3.67;1.52;;;;;;;;;;10007675;29;20214;-82
2023/05/30 06:55:37;;;;;;;5.32;1.50;;;18.30;18.60;;;;;;10082183;29;20253;-83
2023/05/30 07:00:59;;;;;;;5.80;1.80;;;19.00;14.60;;;;;;10048006;29;20207;-83
2023/05/30 07:06:21;;;;;;;4.25;1.45;;;;;;;;;;10030987;29;20199;-82
2023/05/30 07:11:43;;;;;;;4.35;1.63;;;20.20;10.20;;;;;;9991153;29;20545;-86
2023/05/30 07:17:06;;;;;;;6.07;1.45;;;;;;;;;;10025621;29;20241;-81
2023/05/30 07:22:27;;;;;;;3.72;1.38;;;20.90;9.00;;;;;;10020811;29;20227;-80
2023/05/30 07:27:49;;;;;;;3.88;1.23;;;21.40;8.00;;;;;;10028627;29;20204;-80
2023/05/30 07:33:10;;;;;;;4.90;1.40;;;21.60;6.60;;;;;;10020752;29;20239;-80
2023/05/30 07:38:31;;;;;;;5.50;1.95;;;21.90;5.40;;;;;;10052599;29;20266;-80
2023/05/30 07:43:53;;;;;;;3.67;1.58;;;22.50;5.40;;;;;;10006872;29;20207;-88
2023/05/30 07:49:14;;;;;;;6.90;1.70;;;22.90;5.00;;;;;;10009216;29;20750;-87
2023/05/30 07:54:35;;;;;;;2.30;1.15;;;23.30;4.60;;;;;;10005728;29;20220;-89
2023/05/30 07:59:57;;;;;;;3.08;1.45;;;23.60;11.00;;;;;;10011958;29;20211;-78
2023/05/30 08:05:19;;;;;;;6.53;2.10;;;23.90;1.00;;;;;;10076700;29;20214;-81
2023/05/30 08:10:40;;;;;;;3.50;1.63;;;24.00;1.10;;;;;;10043950;29;20226;-80
2023/05/30 08:16:01;;;;;;;8.02;2.10;;;24.00;1.00;;;;;;10055698;29;20234;-82
2023/05/30 08:21:24;;;;;;;7.10;2.17;;;24.30;1.10;;;;;;10025847;29;20221;-86
2023/05/30 08:26:47;;;;;;;3.35;1.50;;;24.60;1.00;;;;;;10024344;29;20303;-82
2023/05/30 08:32:09;;;;;;;9.88;2.05;;;24.70;1.00;;;;;;10022621;29;20219;-85
2023/05/30 08:37:30;;;;;;;7.28;2.00;;;24.90;1.00;;;;;;10029567;29;20766;-82
2023/05/30 08:42:52;;;;;;;6.68;2.03;;;25.40;1.00;;;;;;10021251;29;20229;-85
2023/05/30 08:48:17;;;;;;;6.15;1.98;;;25.70;1.00;;;;;;10011210;29;20210;-87
2023/05/30 08:53:45;;;;;;;6.07;1.75;;;26.20;1.00;;;;;;10033623;29;20238;-83
2023/05/30 08:59:09;;;;;;;2.53;1.33;;;26.10;1.00;;;;;;10036555;29;20291;-87
2023/05/30 09:04:31;;;;;;;4.28;1.52;;;26.40;1.00;;;;;;10017964;29;20238;-83
2023/05/30 09:09:52;;;;;;;4.78;1.90;;;26.60;1.00;;;;;;10024080;29;20483;-80
2023/05/30 09:15:14;;;;;;;4.45;2.17;;;26.50;1.00;;;;;;9985949;29;20291;-81
2023/05/30 09:20:37;;;;;;;4.10;1.50;;;26.40;1.00;;;;;;10011457;29;20313;-84
2023/05/30 09:26:02;;;;;;;4.88;2.78;;;26.50;1.00;;;;;;10060412;29;20202;-86
2023/05/30 09:31:23;;;;;;;5.35;3.25;;;26.60;1.00;;;;;;10038920;29;20299;-88
2023/05/30 09:36:54;;;;;;;7.03;2.70;;;26.70;1.00;;;;;;10023526;29;20254;-85
2023/05/30 09:42:16;;;;;;;9.05;3.42;;;26.80;1.00;;;;;;10034615;29;20218;-85
2023/05/30 09:47:42;;;;;;;8.25;2.40;;;26.80;1.00;;;;;;10059660;29;20293;-83
2023/05/30 09:53:04;;;;;;;3.17;1.48;;;27.20;1.00;;;;;;10021334;29;20216;-85
2023/05/30 09:58:25;;;;;;;4.35;2.03;;;27.20;1.00;;;;;;10007999;29;20239;-86
2023/05/30 10:03:48;;;;;;;6.75;1.80;;;27.20;1.00;;;;;;10011927;29;20638;-85
2023/05/30 10:09:11;;;;;;;4.63;2.10;;;27.10;1.00;;;;;;10009545;29;20342;-86
2023/05/30 10:14:34;;;;;;;6.85;1.88;;;27.30;1.00;;;;;;9997747;29;20392;-84
2023/05/30 10:19:58;;;;;;;6.35;2.38;;;27.30;1.00;;;;;;10002481;29;20239;-85
2023/05/30 10:25:21;;;;;;;7.93;3.95;;;27.50;1.00;;;;;;10006127;29;20363;-87
2023/05/30 10:30:43;;;;;;;3.67;2.13;;;26.60;1.00;;;;;;10040357;29;20200;-81
2023/05/30 10:36:05;;;;;;;2.80;1.60;;;26.80;1.00;;;;;;10038988;29;20235;-83
2023/05/30 10:41:45;;;;;;;6.78;2.28;;;26.60;1.00;;;;;;10027722;29;20234;-82
2023/05/30 10:47:19;;;;;;;1.90;1.13;;;25.40;1.00;;;;;;9988685;29;20479;-84
2023/05/30 10:52:41;;;;;;;4.68;1.60;;;25.60;1.00;;;;;;9995686;29;20280;-81
2023/05/30 10:58:35;;;;;;;2.80;1.50;;;26.50;1.00;;;;;;10063901;29;20242;-84
2023/05/30 11:04:04;;;;;;;3.63;1.60;;;25.60;1.00;;;;;;10040598;29;20245;-88
2023/05/30 11:09:26;;;;;;;3.95;2.28;;;26.00;1.00;;;;;;10079009;29;20213;-87
2023/05/30 11:14:55;;;;;;;3.97;1.40;;;26.60;1.00;;;;;;10057674;29;20223;-81
2023/05/30 11:20:20;;;;;;;3.67;1.30;;;25.70;1.00;;;;;;9991876;29;20261;-86
2023/05/30 11:25:42;;;;;;;4.32;1.38;;;26.10;1.00;;;;;;9998764;29;20260;-84
2023/05/30 11:31:17;;;;;;;6.25;1.83;;;25.70;1.00;;;;;;10013931;29;20208;-83
2023/05/30 11:36:39;;;;;;;2.85;1.40;;;24.60;1.00;;;;;;10017169;29;20612;-82
2023/05/30 11:42:01;;;;;;;3.25;1.13;;;24.80;1.00;;;;;;10009969;29;20223;-88
2023/05/30 11:47:25;;;;;;;2.70;1.33;;;25.00;1.00;;;;;;10051735;29;20230;-84
2023/05/30 11:52:58;;;;;;;2.10;1.35;;;24.70;1.00;;;;;;10070127;29;20239;-80
2023/05/30 11:58:19;;;;;;;7.03;1.65;;;24.20;1.00;;;;;;10032795;29;20234;-83
2023/05/30 12:03:43;;;;;;;7.32;2.03;;;23.90;1.30;;;;;;10063726;29;20196;-87
2023/05/30 12:09:05;;;;;;;3.17;1.48;;;23.90;1.00;;;;;;10004084;29;20212;-78
2023/05/30 12:14:40;;;;;;;4.63;1.70;;;24.90;1.00;;;;;;10002877;29;20219;-77
2023/05/30 12:20:09;;;;;;;3.10;1.70;;;24.30;1.00;;;;;;10015663;29;20236;-80
2023/05/30 12:25:30;;;;;;;7.18;1.70;;;24.00;1.00;;;;;;10008024;29;20543;-79
2023/05/30 12:30:52;;;;;;;2.53;1.00;;;23.80;1.00;;;;;;10030018;29;20219;-83
2023/05/30 12:36:14;;;;;;;5.30;1.40;;;24.60;1.00;;;;;;10017991;29;20259;-76
2023/05/30 12:41:40;;;;;;;3.75;1.50;;;24.80;1.00;;;;;;10022924;29;20199;-79
2023/05/30 12:47:02;;;;;;;3.58;1.58;;;24.50;1.00;;;;;;10020522;29;20253;-79
2023/05/30 12:52:25;;;;;;;4.47;1.42;;;25.10;1.00;;;;;;10028646;29;20208;-84
2023/05/30 12:57:46;;;;;;;2.60;1.30;;;25.50;1.00;;;;;;9998309;29;20232;-85
2023/05/30 13:03:08;;;;;;;7.90;2.13;;;25.70;1.00;;;;;;9989729;29;20261;-83
2023/05/30 13:08:30;;;;;;;3.17;1.33;;;25.60;1.00;;;;;;10034639;29;20211;-84
2023/05/30 13:13:51;;;;;;;4.55;1.20;;;25.60;1.00;;;;;;10031306;29;20506;-87
2023/05/30 13:19:12;;;;;;;6.68;1.73;;;25.70;1.00;;;;;;10005317;29;20306;-89
2023/05/30 13:25:12;;;;;;;5.03;1.05;;;25.80;1.00;;;;;;10032771;29;20202;-88
2023/05/30 13:30:33;;;;;;;12.90;1.70;;;25.80;1.00;;;;;;10020536;29;20199;-88
2023/05/30 13:35:55;;;;;;;3.80;1.58;;;25.40;1.00;;;;;;9954085;29;20314;-85
2023/05/30 13:41:16;;;;;;;5.55;1.33;;;25.40;1.00;;;;;;10019009;29;20247;-84
2023/05/30 13:46:38;;;;;;;5.63;1.48;;;25.10;1.00;;;;;;10043839;29;20207;-87
2023/05/30 13:52:00;;;;;;;1.73;1.20;;;25.20;1.00;;;;;;10004310;29;20218;-83
2023/05/30 13:57:21;;;;;;;2.28;0.93;;;25.10;1.00;;;;;;9987952;29;20521;-85
2023/05/30 14:02:42;;;;;;;16.33;1.67;;;24.80;1.00;;;;;;10048668;29;20218;-85
2023/05/30 14:08:04;;;;;;;4.75;1.35;;;24.60;1.00;;;;;;10062030;29;20195;-85
2023/05/30 14:13:26;;;;;;;2.65;1.20;;;24.70;1.00;;;;;;9997562;29;20199;-90
2023/05/30 14:25:03;;;;;;;1.75;1.20;;;24.50;1.00;;;;;;10004257;29;20244;-88
2023/05/30 14:30:25;;;;;;;1.75;1.20;;;24.20;1.00;;;;;;10018599;29;20227;-89
2023/05/30 14:35:46;;;;;;;8.48;1.27;;;24.00;1.00;;;;;;10019607;29;20730;-85
2023/05/30 14:41:08;;;;;;;4.00;1.50;;;23.80;1.00;;;;;;10018154;29;20219;-87
2023/05/30 14:46:30;;;;;;;3.95;1.42;;;23.90;1.00;;;;;;10000755;29;20318;-88
2023/05/30 14:51:51;;;;;;;5.22;2.33;;;23.90;1.00;;;;;;9986829;29;20298;-84
2023/05/30 14:57:16;;;;;;;5.88;1.48;;;23.70;1.00;;;;;;10023766;29;20242;-86
2023/05/30 15:02:37;;;;;;;6.70;1.65;;;23.40;1.00;;;;;;10011836;29;20217;-82
2023/05/30 15:07:59;;;;;;;4.82;1.50;;;23.30;1.00;;;;;;10009490;29;20222;-81
2023/05/30 15:13:21;;;;;;;4.40;2.05;;;23.10;1.00;;;;;;10029942;29;20203;-81
2023/05/30 15:18:42;;;;;;;5.28;1.73;;;23.10;1.20;;;;;;10015293;29;20231;-81
2023/05/30 15:24:03;;;;;;;7.47;1.95;;;22.90;1.30;;;;;;10034175;29;20208;-83
2023/05/30 15:29:25;;;;;;;3.00;1.23;;;22.90;1.50;;;;;;10021467;29;20257;-83
2023/05/30 15:34:46;;;;;;;7.10;3.17;;;22.70;1.30;;;;;;10033319;29;20405;-81
2023/05/30 15:40:08;;;;;;;2.30;1.50;;;22.60;1.60;;;;;;10038295;29;20227;-81
2023/05/30 15:45:30;;;;;;;3.35;1.63;;;22.40;1.00;;;;;;10020918;29;20403;-81
2023/05/30 15:50:51;;;;;;;2.15;1.40;;;22.30;1.00;;;;;;10021328;29;20252;-81
2023/05/30 15:56:12;;;;;;;5.97;2.33;;;22.10;1.40;;;;;;10024272;29;20231;-82
2023/05/30 16:01:34;;;;;;;3.90;1.75;;;22.00;2.10;;;;;;10004336;29;20525;-80
2023/05/30 16:06:57;;;;;;;3.95;1.73;;;21.80;2.20;;;;;;10029571;29;20406;-81
2023/05/30 16:12:21;;;;;;;4.32;1.88;;;21.60;4.20;;;;;;10012568;29;20411;-81
2023/05/30 16:17:44;;;;;;;4.28;1.60;;;;;;;;;;10006248;29;20223;-81
2023/05/30 16:23:06;;;;;;;2.90;1.35;;;;;;;;;;9977968;29;20204;-80
2023/05/30 16:28:27;;;;;;;9.95;4.22;;;;;;;;;;10003379;29;20605;-81
2023/05/30 16:33:49;;;;;;;3.92;2.80;;;;;;;;;;9990005;29;20574;-81
2023/05/30 16:39:11;;;;;;;6.47;1.70;;;20.80;36.40;;;;;;10036896;29;20302;-81
2023/05/30 16:44:33;;;;;;;2.85;1.63;;;20.50;8.00;;;;;;9995025;29;20216;-81
2023/05/30 16:49:54;;;;;;;3.63;1.30;;;20.40;8.60;;;;;;10007144;29;20562;-81
2023/05/30 16:55:16;;;;;;;4.55;1.73;;;20.20;9.00;;;;;;10004334;29;20208;-81
2023/05/30 17:00:37;;;;;;;2.58;1.63;;;20.10;9.60;;;;;;9989568;29;20424;-81
2023/05/30 17:05:58;;;;;;;6.15;2.30;;;19.90;10.20;;;;;;9990196;29;20497;-80
2023/05/30 17:11:20;;;;;;;8.38;2.65;;;19.70;10.60;;;;;;10014406;29;20207;-81
2023/05/30 17:16:41;;;;;;;5.93;2.13;;;19.60;10.80;;;;;;10005508;29;20307;-80
2023/05/30 17:22:02;;;;;;;5.32;1.92;;;19.50;10.80;;;;;;9976565;29;20207;-80
2023/05/30 17:27:23;;;;;;;4.13;1.45;;;19.40;9.80;;;;;;9976771;29;20215;-81
2023/05/30 17:32:45;;;;;;;3.08;1.58;;;19.20;8.90;;;;;;9989265;29;20208;-80
2023/05/30 17:38:06;;;;;;;3.70;1.85;;;19.00;8.30;;;;;;10011241;29;20550;-80
2023/05/30 17:43:28;;;;;;;6.10;2.00;;;18.70;8.50;;;;;;10018203;29;20264;-80
2023/05/30 17:48:49;;;;;;;5.82;1.90;;;18.50;8.60;;;;;;9998010;29;20415;-80
2023/05/30 17:54:13;;;;;;;10.02;2.88;;;18.40;9.40;;;;;;10026781;29;20215;-80
2023/05/30 17:59:36;;;;;;;5.82;2.33;;;18.30;9.00;;;;;;9988732;29;20564;-81
2023/05/30 18:04:57;;;;;;;5.68;2.10;;;18.00;8.50;;;;;;10000469;29;20375;-81
2023/05/30 18:10:18;;;;;;;3.90;1.98;;;17.90;8.20;;;;;;10020672;29;20213;-81
2023/05/30 18:15:43;;;;;;;5.65;2.30;;;17.80;8.30;;;;;;10028298;29;20215;-80
2023/05/30 18:21:05;;;;;;;2.92;1.92;;;17.80;8.30;;;;;;10032433;29;20246;-81
2023/05/30 18:26:27;;;;;;;5.43;3.00;;;17.60;7.70;;;;;;10001762;29;20302;-81
2023/05/30 18:31:49;;;;;;;7.13;2.55;;;;;;;;;;9994780;29;20495;-81
2023/05/30 18:37:10;;;;;;;4.65;2.13;;;17.20;28.30;;;;;;10002934;29;20251;-81
2023/05/30 18:42:32;;;;;;;6.45;1.60;;;17.30;28.40;;;;;;10013271;29;20497;-81
2023/05/30 18:47:54;;;;;;;3.17;1.52;;;;;;;;;;9997966;29;20223;-81
2023/05/30 18:53:16;;;;;;;4.55;1.58;;;16.90;5.10;;;;;;10044707;29;20225;-80
2023/05/30 18:58:38;;;;;;;4.07;1.80;;;16.70;6.10;;;;;;9991437;29;20227;-80
2023/05/30 19:03:59;;;;;;;5.68;2.35;;;16.60;6.50;;;;;;9995889;29;20210;-81
2023/05/30 19:09:24;;;;;;;7.53;3.90;;;16.40;6.70;;;;;;10013931;29;20475;-80
2023/05/30 19:14:46;;;;;;;4.50;3.08;;;16.30;6.60;;;;;;10026537;29;20245;-79
2023/05/30 19:20:07;;;;;;;5.75;2.42;;;16.20;6.90;;;;;;10030884;29;20246;-78
2023/05/30 19:25:29;;;;;;;3.83;2.60;;;16.10;7.30;;;;;;10003481;29;20294;-78
2023/05/30 19:30:50;;;;;;;6.72;3.10;;;16.10;7.90;;;;;;10007533;29;20200;-80
2023/05/30 19:36:12;;;;;;;5.75;3.13;;;16.00;8.40;;;;;;10032278;29;20250;-81
2023/05/30 19:41:36;;;;;;;8.52;3.70;;;15.90;9.10;;;;;;10030118;29;20215;-78
2023/05/30 19:46:57;;;;;;;5.40;2.58;;;15.80;9.70;;;;;;9995113;29;20264;-79
2023/05/30 19:52:19;;;;;;;7.93;3.33;;;15.70;10.20;;;;;;10039225;29;20500;-79
2023/05/30 19:57:40;;;;;;;10.80;4.30;;;15.60;10.50;;;;;;10006843;29;20237;-79
2023/05/30 20:03:02;;;;;;;15.07;8.65;;;15.50;10.70;;;;;;10022758;29;20203;-79
2023/05/30 20:08:23;;;;;;;24.15;14.38;;;15.40;11.50;;;;;;10020380;29;20254;-79
2023/05/30 20:13:45;;;;;;;17.50;11.93;;;15.30;12.00;;;;;;10039012;29;20206;-79
2023/05/30 20:19:07;;;;;;;26.80;17.58;;;15.20;12.70;;;;;;10050092;29;20234;-79
2023/05/30 20:24:30;;;;;;;35.70;25.83;;;15.20;13.80;;;;;;10012904;29;20434;-80
2023/05/30 20:42:44;;;;;;;9.40;4.60;;;14.90;19.40;;;;;;10020482;29;20222;-80
2023/05/30 20:53:25;;;;;;;6.50;4.05;;;14.80;21.60;;;;;;10029704;29;20221;-80
2023/05/30 21:04:06;;;;;;;8.60;4.30;;;14.60;23.50;;;;;;10008409;29;20512;-80
2023/05/30 21:09:28;;;;;;;12.80;5.20;;;14.50;23.80;;;;;;10011602;29;20458;-80
2023/05/30 21:14:50;;;;;;;14.43;6.75;;;14.50;24.60;;;;;;10007189;29;20207;-79
2023/05/30 21:20:11;;;;;;;18.70;10.02;;;14.40;23.60;;;;;;9989916;29;20238;-80
2023/05/30 21:25:32;;;;;;;29.85;12.13;;;14.40;25.80;;;;;;10027701;29;20214;-80
2023/05/30 21:36:13;;;;;;;21.15;11.05;;;14.40;29.50;;;;;;10049720;29;20245;-80
2023/05/30 21:41:35;;;;;;;18.40;10.82;;;14.30;31.30;;;;;;10006935;29;20299;-80
2023/05/30 21:46:56;;;;;;;20.35;11.85;;;14.20;31.70;;;;;;10013157;29;20211;-80
2023/05/30 21:52:19;;;;;;;20.55;11.35;;;14.00;1.00;;;;;;10019709;29;20207;-80
2023/05/30 21:57:41;;;;;;;16.08;9.50;;;13.90;1.00;;;;;;10007090;29;20273;-79
2023/05/30 22:03:02;;;;;;;13.02;8.18;;;13.80;1.00;;;;;;10030252;29;20277;-82
2023/05/30 22:08:24;;;;;;;12.40;6.88;;;13.80;1.00;;;;;;10010037;29;20216;-80
2023/05/30 22:13:45;;;;;;;9.63;5.80;;;13.50;58.20;;;;;;10023616;29;20234;-82
2023/05/30 22:19:07;;;;;;;9.82;5.70;;;13.30;1.00;;;;;;10030670;29;20243;-81
2023/05/30 22:30:14;;;;;;;10.65;5.90;;;12.90;1.00;;;;;;10025087;29;20222;-80
2023/05/30 22:42:12;;;;;;;8.38;4.93;;;12.80;1.00;;;;;;10073624;29;20217;-81
2023/05/30 22:47:34;;;;;;;9.60;4.95;;;12.80;1.00;;;;;;10060062;29;20227;-82
2023/05/30 22:52:55;;;;;;;9.93;5.43;;;12.70;18.60;;;;;;10060433;29;20221;-80
2023/05/30 22:58:17;;;;;;;10.00;5.82;;;12.70;82.60;;;;;;10058955;29;20271;-81
2023/05/30 23:03:38;;;;;;;14.18;6.45;;;12.60;99.90;;;;;;10096759;29;20420;-81
2023/05/30 23:08:59;;;;;;;14.20;7.15;;;12.50;99.90;;;;;;10127560;29;20203;-80
2023/05/30 23:14:22;;;;;;;14.15;7.30;;;12.40;99.90;;;;;;10055397;29;20230;-81
2023/05/30 23:19:43;;;;;;;13.43;7.28;;;12.30;99.90;;;;;;10046474;29;20227;-80
2023/05/30 23:25:05;;;;;;;11.10;6.10;;;12.40;99.90;;;;;;10033231;29;20342;-81
2023/05/30 23:30:27;;;;;;;12.15;6.32;;;12.30;99.90;;;;;;10049294;29;20204;-80
2023/05/30 23:35:48;;;;;;;11.13;5.93;;;12.20;99.90;;;;;;10050941;29;20266;-80
2023/05/30 23:41:11;;;;;;;14.73;6.97;;;12.00;1.00;;;;;;10068483;29;20228;-80
2023/05/30 23:46:32;;;;;;;11.35;6.40;;;12.00;1.00;;;;;;10040714;29;20495;-80
2023/05/30 23:51:54;;;;;;;10.00;6.10;;;12.00;1.00;;;;;;9997722;29;20230;-80
2023/05/30 23:57:15;;;;;;;11.07;5.72;;;11.90;1.00;;;;;;10075468;29;20313;-80
